sensor_id;sensor_type;location;lat;lon;timestamp;P1;durP1;ratioP1;P2;durP2;ratioP2
36789;SDS011;22740;52.182;8.780;2023-06-26T00:00:18;6.38;;;4.60;;
36789;SDS011;22740;52.182;8.780;2023-06-26T00:06:20;8.38;;;4.75;;
36789;SDS011;22740;52.182;8.780;2023-06-26T00:12:22;5.72;;;4.80;;
36789;SDS011;22740;52.182;8.780;2023-06-26T00:18:24;5.82;;;4.30;;
36789;SDS011;22740;52.182;8.780;2023-06-26T00:24:26;6.38;;;4.75;;
36789;SDS011;22740;52.182;8.780;2023-06-26T00:30:28;6.28;;;4.60;;
36789;SDS011;22740;52.182;8.780;2023-06-26T00:36:30;9.50;;;4.95;;
36789;SDS011;22740;52.182;8.780;2023-06-26T00:42:32;6.35;;;4.88;;
36789;SDS011;22740;52.182;8.780;2023-06-26T00:48:34;8.13;;;4.60;;
36789;SDS011;22740;52.182;8.780;2023-06-26T00:54:36;6.45;;;4.72;;
36789;SDS011;22740;52.182;8.780;2023-06-26T01:00:38;9.35;;;4.93;;
36789;SDS011;22740;52.182;8.780;2023-06-26T01:06:41;7.60;;;4.90;;
36789;SDS011;22740;52.182;8.780;2023-06-26T01:12:44;6.38;;;5.18;;
36789;SDS011;22740;52.182;8.780;2023-06-26T01:18:46;6.60;;;4.87;;
36789;SDS011;22740;52.182;8.780;2023-06-26T01:31:02;6.03;;;5.07;;
36789;SDS011;22740;52.182;8.780;2023-06-26T01:37:05;6.43;;;5.00;;
36789;SDS011;22740;52.182;8.780;2023-06-26T01:43:09;6.15;;;4.90;;
36789;SDS011;22740;52.182;8.780;2023-06-26T01:55:55;6.10;;;4.47;;
36789;SDS011;22740;52.182;8.780;2023-06-26T02:02:06;6.00;;;4.57;;
36789;SDS011;22740;52.182;8.780;2023-06-26T02:08:09;6.60;;;5.00;;
36789;SDS011;22740;52.182;8.780;2023-06-26T02:14:11;6.45;;;4.93;;
36789;SDS011;22740;52.182;8.780;2023-06-26T02:20:14;8.60;;;4.85;;
36789;SDS011;22740;52.182;8.780;2023-06-26T02:26:16;7.53;;;4.85;;
36789;SDS011;22740;52.182;8.780;2023-06-26T02:32:19;6.07;;;4.68;;
36789;SDS011;22740;52.182;8.780;2023-06-26T02:38:20;8.30;;;4.95;;
36789;SDS011;22740;52.182;8.780;2023-06-26T02:44:22;6.57;;;4.30;;
36789;SDS011;22740;52.182;8.780;2023-06-26T02:50:24;7.10;;;4.95;;
36789;SDS011;22740;52.182;8.780;2023-06-26T02:56:27;7.32;;;4.60;;
36789;SDS011;22740;52.182;8.780;2023-06-26T03:02:30;10.85;;;5.10;;
36789;SDS011;22740;52.182;8.780;2023-06-26T03:08:32;9.35;;;4.75;;
36789;SDS011;22740;52.182;8.780;2023-06-26T03:14:34;8.00;;;4.75;;
36789;SDS011;22740;52.182;8.780;2023-06-26T03:20:37;7.50;;;4.78;;
36789;SDS011;22740;52.182;8.780;2023-06-26T03:26:39;7.22;;;4.72;;
36789;SDS011;22740;52.182;8.780;2023-06-26T03:32:41;6.13;;;5.03;;
36789;SDS011;22740;52.182;8.780;2023-06-26T03:38:43;8.75;;;4.70;;
36789;SDS011;22740;52.182;8.780;2023-06-26T03:44:45;7.25;;;4.68;;
36789;SDS011;22740;52.182;8.780;2023-06-26T03:50:47;7.30;;;4.30;;
36789;SDS011;22740;52.182;8.780;2023-06-26T03:56:49;7.82;;;4.60;;
36789;SDS011;22740;52.182;8.780;2023-06-26T04:02:51;5.75;;;4.50;;
36789;SDS011;22740;52.182;8.780;2023-06-26T04:08:53;5.43;;;4.13;;
36789;SDS011;22740;52.182;8.780;2023-06-26T04:14:55;7.45;;;4.35;;
36789;SDS011;22740;52.182;8.780;2023-06-26T04:21:10;5.80;;;4.47;;
36789;SDS011;22740;52.182;8.780;2023-06-26T04:27:13;7.18;;;5.07;;
36789;SDS011;22740;52.182;8.780;2023-06-26T04:33:15;7.60;;;5.20;;
36789;SDS011;22740;52.182;8.780;2023-06-26T04:39:17;6.65;;;5.43;;
36789;SDS011;22740;52.182;8.780;2023-06-26T04:45:19;7.35;;;5.15;;
36789;SDS011;22740;52.182;8.780;2023-06-26T04:51:22;6.30;;;4.72;;
36789;SDS011;22740;52.182;8.780;2023-06-26T04:57:25;6.27;;;4.30;;
36789;SDS011;22740;52.182;8.780;2023-06-26T05:03:27;8.32;;;4.90;;
36789;SDS011;22740;52.182;8.780;2023-06-26T05:09:29;9.88;;;4.57;;
36789;SDS011;22740;52.182;8.780;2023-06-26T05:15:31;6.85;;;5.03;;
36789;SDS011;22740;52.182;8.780;2023-06-26T05:21:33;8.60;;;4.88;;
36789;SDS011;22740;52.182;8.780;2023-06-26T05:27:36;6.60;;;4.80;;
36789;SDS011;22740;52.182;8.780;2023-06-26T05:33:38;6.35;;;4.93;;
36789;SDS011;22740;52.182;8.780;2023-06-26T05:39:44;7.35;;;4.40;;
36789;SDS011;22740;52.182;8.780;2023-06-26T05:45:48;6.18;;;4.60;;
36789;SDS011;22740;52.182;8.780;2023-06-26T05:51:50;5.47;;;4.50;;
36789;SDS011;22740;52.182;8.780;2023-06-26T05:57:52;6.75;;;4.68;;
36789;SDS011;22740;52.182;8.780;2023-06-26T06:09:58;9.50;;;4.85;;
36789;SDS011;22740;52.182;8.780;2023-06-26T06:16:00;10.40;;;5.33;;
36789;SDS011;22740;52.182;8.780;2023-06-26T06:22:02;6.90;;;5.18;;
36789;SDS011;22740;52.182;8.780;2023-06-26T06:28:04;6.88;;;5.13;;
36789;SDS011;22740;52.182;8.780;2023-06-26T06:34:07;8.05;;;5.38;;
36789;SDS011;22740;52.182;8.780;2023-06-26T06:40:09;9.20;;;5.95;;
36789;SDS011;22740;52.182;8.780;2023-06-26T06:46:12;8.25;;;6.20;;
36789;SDS011;22740;52.182;8.780;2023-06-26T06:52:14;9.05;;;6.25;;
36789;SDS011;22740;52.182;8.780;2023-06-26T06:58:16;8.32;;;6.32;;
36789;SDS011;22740;52.182;8.780;2023-06-26T07:04:20;10.43;;;5.80;;
36789;SDS011;22740;52.182;8.780;2023-06-26T07:10:22;8.95;;;6.38;;
36789;SDS011;22740;52.182;8.780;2023-06-26T07:16:24;11.38;;;6.93;;
36789;SDS011;22740;52.182;8.780;2023-06-26T07:22:26;11.20;;;7.95;;
36789;SDS011;22740;52.182;8.780;2023-06-26T07:28:28;9.32;;;7.35;;
36789;SDS011;22740;52.182;8.780;2023-06-26T07:34:30;11.25;;;7.65;;
36789;SDS011;22740;52.182;8.780;2023-06-26T07:40:32;11.70;;;7.75;;
36789;SDS011;22740;52.182;8.780;2023-06-26T07:46:34;11.50;;;7.85;;
36789;SDS011;22740;52.182;8.780;2023-06-26T07:52:36;13.18;;;8.65;;
36789;SDS011;22740;52.182;8.780;2023-06-26T07:58:38;11.80;;;8.23;;
36789;SDS011;22740;52.182;8.780;2023-06-26T08:04:40;8.75;;;7.15;;
36789;SDS011;22740;52.182;8.780;2023-06-26T08:10:42;8.98;;;6.82;;
36789;SDS011;22740;52.182;8.780;2023-06-26T08:16:44;11.18;;;7.60;;
36789;SDS011;22740;52.182;8.780;2023-06-26T08:22:48;10.55;;;8.25;;
36789;SDS011;22740;52.182;8.780;2023-06-26T08:28:52;12.77;;;8.82;;
36789;SDS011;22740;52.182;8.780;2023-06-26T08:34:54;14.73;;;8.30;;
36789;SDS011;22740;52.182;8.780;2023-06-26T08:40:56;13.07;;;8.43;;
36789;SDS011;22740;52.182;8.780;2023-06-26T08:46:59;14.13;;;8.45;;
36789;SDS011;22740;52.182;8.780;2023-06-26T08:53:21;15.90;;;9.02;;
36789;SDS011;22740;52.182;8.780;2023-06-26T08:59:30;15.38;;;8.25;;
36789;SDS011;22740;52.182;8.780;2023-06-26T09:05:33;16.75;;;8.05;;
36789;SDS011;22740;52.182;8.780;2023-06-26T09:11:35;16.88;;;7.95;;
36789;SDS011;22740;52.182;8.780;2023-06-26T09:17:39;15.13;;;8.20;;
36789;SDS011;22740;52.182;8.780;2023-06-26T09:23:42;14.20;;;7.90;;
36789;SDS011;22740;52.182;8.780;2023-06-26T09:29:45;12.98;;;8.38;;
36789;SDS011;22740;52.182;8.780;2023-06-26T09:35:48;12.73;;;7.43;;
36789;SDS011;22740;52.182;8.780;2023-06-26T09:41:50;11.80;;;6.65;;
36789;SDS011;22740;52.182;8.780;2023-06-26T09:47:52;12.60;;;5.87;;
36789;SDS011;22740;52.182;8.780;2023-06-26T09:53:54;11.77;;;5.22;;
36789;SDS011;22740;52.182;8.780;2023-06-26T09:59:56;10.25;;;5.45;;
36789;SDS011;22740;52.182;8.780;2023-06-26T10:05:59;8.88;;;5.47;;
36789;SDS011;22740;52.182;8.780;2023-06-26T10:12:06;10.50;;;5.15;;
36789;SDS011;22740;52.182;8.780;2023-06-26T10:18:14;12.85;;;5.95;;
36789;SDS011;22740;52.182;8.780;2023-06-26T10:30:21;11.35;;;5.10;;
36789;SDS011;22740;52.182;8.780;2023-06-26T10:36:29;13.98;;;5.40;;
36789;SDS011;22740;52.182;8.780;2023-06-26T10:42:35;11.02;;;6.03;;
36789;SDS011;22740;52.182;8.780;2023-06-26T10:48:55;12.07;;;4.57;;
36789;SDS011;22740;52.182;8.780;2023-06-26T10:54:59;10.27;;;4.70;;
36789;SDS011;22740;52.182;8.780;2023-06-26T11:13:24;8.02;;;4.10;;
36789;SDS011;22740;52.182;8.780;2023-06-26T11:19:27;4.45;;;2.80;;
36789;SDS011;22740;52.182;8.780;2023-06-26T11:25:29;10.93;;;2.45;;
36789;SDS011;22740;52.182;8.780;2023-06-26T11:31:37;5.95;;;2.58;;
36789;SDS011;22740;52.182;8.780;2023-06-26T11:37:40;5.38;;;2.30;;
36789;SDS011;22740;52.182;8.780;2023-06-26T11:43:42;6.95;;;2.35;;
36789;SDS011;22740;52.182;8.780;2023-06-26T11:49:44;7.85;;;2.58;;
36789;SDS011;22740;52.182;8.780;2023-06-26T11:55:47;6.15;;;2.35;;
36789;SDS011;22740;52.182;8.780;2023-06-26T12:01:49;4.25;;;2.22;;
36789;SDS011;22740;52.182;8.780;2023-06-26T12:07:53;6.32;;;1.80;;
36789;SDS011;22740;52.182;8.780;2023-06-26T12:13:55;4.53;;;1.83;;
36789;SDS011;22740;52.182;8.780;2023-06-26T12:19:57;4.27;;;2.03;;
36789;SDS011;22740;52.182;8.780;2023-06-26T12:25:59;4.38;;;1.70;;
36789;SDS011;22740;52.182;8.780;2023-06-26T12:32:24;9.30;;;2.17;;
36789;SDS011;22740;52.182;8.780;2023-06-26T12:38:34;5.93;;;2.13;;
36789;SDS011;22740;52.182;8.780;2023-06-26T12:44:37;6.60;;;2.13;;
36789;SDS011;22740;52.182;8.780;2023-06-26T12:50:45;5.55;;;2.00;;
36789;SDS011;22740;52.182;8.780;2023-06-26T12:56:47;3.95;;;1.80;;
36789;SDS011;22740;52.182;8.780;2023-06-26T13:02:49;5.25;;;1.80;;
36789;SDS011;22740;52.182;8.780;2023-06-26T13:08:51;12.45;;;2.10;;
36789;SDS011;22740;52.182;8.780;2023-06-26T13:14:55;4.65;;;1.88;;
36789;SDS011;22740;52.182;8.780;2023-06-26T13:20:57;5.75;;;2.20;;
36789;SDS011;22740;52.182;8.780;2023-06-26T13:26:59;4.47;;;1.95;;
36789;SDS011;22740;52.182;8.780;2023-06-26T13:33:01;3.53;;;1.75;;
36789;SDS011;22740;52.182;8.780;2023-06-26T13:39:03;7.13;;;1.90;;
36789;SDS011;22740;52.182;8.780;2023-06-26T13:45:05;3.22;;;1.83;;
36789;SDS011;22740;52.182;8.780;2023-06-26T13:51:26;7.22;;;1.90;;
36789;SDS011;22740;52.182;8.780;2023-06-26T13:57:28;4.85;;;2.17;;
36789;SDS011;22740;52.182;8.780;2023-06-26T14:03:31;4.35;;;1.67;;
36789;SDS011;22740;52.182;8.780;2023-06-26T14:09:33;5.28;;;1.98;;
36789;SDS011;22740;52.182;8.780;2023-06-26T14:15:35;5.72;;;1.90;;
36789;SDS011;22740;52.182;8.780;2023-06-26T14:21:37;6.60;;;2.03;;
36789;SDS011;22740;52.182;8.780;2023-06-26T14:27:39;6.03;;;2.38;;
36789;SDS011;22740;52.182;8.780;2023-06-26T14:33:42;5.18;;;2.08;;
36789;SDS011;22740;52.182;8.780;2023-06-26T14:39:45;10.23;;;2.15;;
36789;SDS011;22740;52.182;8.780;2023-06-26T14:45:47;5.23;;;2.00;;
36789;SDS011;22740;52.182;8.780;2023-06-26T14:51:50;5.60;;;1.93;;
36789;SDS011;22740;52.182;8.780;2023-06-26T14:57:51;4.05;;;1.70;;
36789;SDS011;22740;52.182;8.780;2023-06-26T15:03:53;4.55;;;1.60;;
36789;SDS011;22740;52.182;8.780;2023-06-26T15:09:55;4.45;;;1.45;;
36789;SDS011;22740;52.182;8.780;2023-06-26T15:15:58;4.50;;;1.60;;
36789;SDS011;22740;52.182;8.780;2023-06-26T15:22:00;5.93;;;1.20;;
36789;SDS011;22740;52.182;8.780;2023-06-26T15:28:02;7.25;;;2.55;;
36789;SDS011;22740;52.182;8.780;2023-06-26T15:34:05;6.97;;;1.50;;
36789;SDS011;22740;52.182;8.780;2023-06-26T15:40:07;4.45;;;2.15;;
36789;SDS011;22740;52.182;8.780;2023-06-26T15:46:09;5.43;;;1.77;;
36789;SDS011;22740;52.182;8.780;2023-06-26T15:52:12;5.03;;;2.10;;
36789;SDS011;22740;52.182;8.780;2023-06-26T15:58:13;11.13;;;4.50;;
36789;SDS011;22740;52.182;8.780;2023-06-26T16:04:17;9.32;;;2.85;;
36789;SDS011;22740;52.182;8.780;2023-06-26T16:16:21;5.03;;;1.00;;
36789;SDS011;22740;52.182;8.780;2023-06-26T16:22:23;3.58;;;1.10;;
36789;SDS011;22740;52.182;8.780;2023-06-26T16:28:24;1.70;;;0.68;;
36789;SDS011;22740;52.182;8.780;2023-06-26T16:34:26;3.70;;;1.08;;
36789;SDS011;22740;52.182;8.780;2023-06-26T16:40:29;2.60;;;1.00;;
36789;SDS011;22740;52.182;8.780;2023-06-26T16:46:31;3.75;;;1.10;;
36789;SDS011;22740;52.182;8.780;2023-06-26T16:52:33;6.47;;;0.97;;
36789;SDS011;22740;52.182;8.780;2023-06-26T16:58:35;3.28;;;1.00;;
36789;SDS011;22740;52.182;8.780;2023-06-26T17:04:37;5.18;;;1.17;;
36789;SDS011;22740;52.182;8.780;2023-06-26T17:10:39;3.80;;;0.98;;
36789;SDS011;22740;52.182;8.780;2023-06-26T17:16:41;5.13;;;1.00;;
36789;SDS011;22740;52.182;8.780;2023-06-26T17:22:43;2.92;;;1.17;;
36789;SDS011;22740;52.182;8.780;2023-06-26T17:28:45;4.32;;;1.15;;
36789;SDS011;22740;52.182;8.780;2023-06-26T17:34:48;3.78;;;1.10;;
36789;SDS011;22740;52.182;8.780;2023-06-26T17:40:50;4.18;;;1.30;;
36789;SDS011;22740;52.182;8.780;2023-06-26T17:46:52;4.38;;;1.08;;
36789;SDS011;22740;52.182;8.780;2023-06-26T17:52:55;6.97;;;1.13;;
36789;SDS011;22740;52.182;8.780;2023-06-26T17:59:00;8.57;;;1.17;;
36789;SDS011;22740;52.182;8.780;2023-06-26T18:05:02;5.45;;;1.23;;
36789;SDS011;22740;52.182;8.780;2023-06-26T18:11:04;2.63;;;1.52;;
36789;SDS011;22740;52.182;8.780;2023-06-26T18:17:06;3.67;;;0.90;;
36789;SDS011;22740;52.182;8.780;2023-06-26T18:23:08;2.55;;;1.02;;
36789;SDS011;22740;52.182;8.780;2023-06-26T18:29:11;4.60;;;1.10;;
36789;SDS011;22740;52.182;8.780;2023-06-26T18:35:13;4.72;;;1.10;;
36789;SDS011;22740;52.182;8.780;2023-06-26T18:41:15;2.88;;;1.20;;
36789;SDS011;22740;52.182;8.780;2023-06-26T18:47:17;2.30;;;0.80;;
36789;SDS011;22740;52.182;8.780;2023-06-26T18:53:19;5.85;;;1.00;;
36789;SDS011;22740;52.182;8.780;2023-06-26T18:59:20;4.30;;;0.90;;
36789;SDS011;22740;52.182;8.780;2023-06-26T19:05:25;4.97;;;1.17;;
36789;SDS011;22740;52.182;8.780;2023-06-26T19:11:26;2.78;;;0.93;;
36789;SDS011;22740;52.182;8.780;2023-06-26T19:17:28;4.95;;;1.10;;
36789;SDS011;22740;52.182;8.780;2023-06-26T19:23:30;4.63;;;1.50;;
36789;SDS011;22740;52.182;8.780;2023-06-26T19:29:34;2.92;;;0.90;;
36789;SDS011;22740;52.182;8.780;2023-06-26T19:35:37;3.70;;;1.05;;
36789;SDS011;22740;52.182;8.780;2023-06-26T19:41:45;2.85;;;0.93;;
36789;SDS011;22740;52.182;8.780;2023-06-26T19:47:47;2.80;;;0.90;;
36789;SDS011;22740;52.182;8.780;2023-06-26T19:53:50;2.90;;;1.02;;
36789;SDS011;22740;52.182;8.780;2023-06-26T19:59:52;2.97;;;0.90;;
36789;SDS011;22740;52.182;8.780;2023-06-26T20:05:54;3.67;;;0.90;;
36789;SDS011;22740;52.182;8.780;2023-06-26T20:11:59;6.30;;;1.10;;
36789;SDS011;22740;52.182;8.780;2023-06-26T20:18:02;6.93;;;1.05;;
36789;SDS011;22740;52.182;8.780;2023-06-26T20:24:10;2.50;;;0.80;;
36789;SDS011;22740;52.182;8.780;2023-06-26T20:30:12;7.90;;;1.27;;
36789;SDS011;22740;52.182;8.780;2023-06-26T20:36:16;3.28;;;1.10;;
36789;SDS011;22740;52.182;8.780;2023-06-26T20:42:18;4.90;;;1.00;;
36789;SDS011;22740;52.182;8.780;2023-06-26T20:48:21;3.13;;;1.10;;
36789;SDS011;22740;52.182;8.780;2023-06-26T20:54:24;1.80;;;0.80;;
36789;SDS011;22740;52.182;8.780;2023-06-26T21:00:26;4.53;;;0.85;;
36789;SDS011;22740;52.182;8.780;2023-06-26T21:06:29;7.38;;;1.30;;
36789;SDS011;22740;52.182;8.780;2023-06-26T21:12:31;6.47;;;1.20;;
36789;SDS011;22740;52.182;8.780;2023-06-26T21:18:33;6.50;;;1.23;;
36789;SDS011;22740;52.182;8.780;2023-06-26T21:24:36;5.40;;;0.93;;
36789;SDS011;22740;52.182;8.780;2023-06-26T21:30:39;4.55;;;1.10;;
36789;SDS011;22740;52.182;8.780;2023-06-26T21:36:41;4.95;;;1.27;;
36789;SDS011;22740;52.182;8.780;2023-06-26T21:42:43;3.03;;;0.95;;
36789;SDS011;22740;52.182;8.780;2023-06-26T21:48:45;4.00;;;0.98;;
36789;SDS011;22740;52.182;8.780;2023-06-26T21:54:47;2.65;;;1.08;;
36789;SDS011;22740;52.182;8.780;2023-06-26T22:00:50;3.88;;;1.30;;
36789;SDS011;22740;52.182;8.780;2023-06-26T22:06:52;4.90;;;1.38;;
36789;SDS011;22740;52.182;8.780;2023-06-26T22:12:56;4.20;;;1.20;;
36789;SDS011;22740;52.182;8.780;2023-06-26T22:18:58;3.72;;;1.13;;
36789;SDS011;22740;52.182;8.780;2023-06-26T22:25:01;5.85;;;1.05;;
36789;SDS011;22740;52.182;8.780;2023-06-26T22:31:04;2.67;;;1.10;;
36789;SDS011;22740;52.182;8.780;2023-06-26T22:37:06;6.65;;;1.20;;
36789;SDS011;22740;52.182;8.780;2023-06-26T22:43:08;3.90;;;1.20;;
36789;SDS011;22740;52.182;8.780;2023-06-26T22:49:12;7.68;;;1.80;;
36789;SDS011;22740;52.182;8.780;2023-06-26T22:55:14;4.68;;;1.50;;
36789;SDS011;22740;52.182;8.780;2023-06-26T23:01:16;2.83;;;1.20;;
36789;SDS011;22740;52.182;8.780;2023-06-26T23:07:19;4.60;;;1.38;;
36789;SDS011;22740;52.182;8.780;2023-06-26T23:13:22;3.47;;;1.40;;
36789;SDS011;22740;52.182;8.780;2023-06-26T23:19:24;6.97;;;1.50;;
36789;SDS011;22740;52.182;8.780;2023-06-26T23:25:26;3.72;;;1.38;;
36789;SDS011;22740;52.182;8.780;2023-06-26T23:31:34;5.63;;;1.60;;
36789;SDS011;22740;52.182;8.780;2023-06-26T23:37:38;4.32;;;1.20;;
36789;SDS011;22740;52.182;8.780;2023-06-26T23:43:42;5.32;;;1.55;;
36789;SDS011;22740;52.182;8.780;2023-06-26T23:49:44;5.63;;;1.20;;
36789;SDS011;22740;52.182;8.780;2023-06-26T23:55:47;6.18;;;1.30;;
